| time (UTC) | temp F | wind direction | speed knots | gust knots | rain 1hr in | rain 24hr in | rain mn in | humidity % | barometer mb |
| 20260503013006 | 62 | 258 | 0.9 | 10.4 | 0.00 | 0.00 | 0.00 | 37 | 1011.2 |
| 20260503011506 | 62 | 200 | 0.0 | 3.5 | 0.00 | 0.00 | 0.00 | 37 | 1011.2 |
| 20260503010010 | 63 | 226 | 0.0 | 2.6 | 0.00 | 0.00 | 0.00 | 38 | 1011.2 |
| 20260503004503 | 63 | 250 | 0.0 | 1.7 | 0.00 | 0.00 | 0.00 | 38 | 1011.4 |
| 20260503003002 | 63 | 262 | 0.0 | 6.1 | 0.00 | 0.00 | 0.00 | 38 | 1011.4 |
| 20260503001602 | 63 | 197 | 0.0 | 2.6 | 0.00 | 0.00 | 0.00 | 37 | 1011.6 |
| 20260503000107 | 63 | 211 | 0.0 | 9.6 | 0.00 | 0.00 | 0.00 | 35 | 1011.7 |
| 20260502234603 | 64 | 276 | 0.0 | 0.0 | 0.00 | 0.00 | 0.00 | 35 | 1011.8 |
| 20260502233056 | 64 | 230 | 0.0 | 0.0 | 0.00 | 0.00 | 0.00 | 34 | 1012.0 |
| 20260502231556 | 64 | 200 | 0.0 | 0.0 | 0.00 | 0.00 | 0.00 | 34 | 1012.3 |
| 20260502230053 | 64 | 250 | 0.0 | 0.0 | 0.00 | 0.00 | 0.00 | 35 | 1012.4 |
| 20260502224555 | 64 | 229 | 0.0 | 3.5 | 0.00 | 0.00 | 0.00 | 34 | 1012.5 |
| 20260502223051 | 64 | 273 | 0.0 | 0.0 | 0.00 | 0.00 | 0.00 | 34 | 1012.6 |
| 20260502221551 | 64 | 262 | 0.0 | 0.0 | 0.00 | 0.00 | 0.00 | 33 | 1012.6 |
| 20260502220047 | 64 | 206 | 0.0 | 1.7 | 0.00 | 0.00 | 0.00 | 33 | 1012.8 |
| 20260502214554 | 64 | 289 | 0.0 | 4.3 | 0.00 | 0.00 | 0.00 | 33 | 1013.0 |
| 20260502213042 | 64 | 258 | 0.0 | 4.3 | 0.00 | 0.00 | 0.00 | 32 | 1013.3 |
| 20260502211540 | 64 | 192 | 0.0 | 0.0 | 0.00 | 0.00 | 0.00 | 32 | 1013.5 |
| 20260502210047 | 64 | 307 | 0.0 | 8.7 | 0.00 | 0.00 | 0.00 | 31 | 1014.0 |
| 20260502204535 | 64 | 203 | 0.0 | 4.3 | 0.00 | 0.00 | 0.00 | 33 | 1014.2 |
| 20260502203033 | 63 | 200 | 0.9 | 7.0 | 0.00 | 0.00 | 0.00 | 32 | 1014.6 |
| 20260502201528 | 62 | 226 | 0.0 | 4.3 | 0.00 | 0.00 | 0.00 | 34 | 1014.9 |
| 20260502200027 | 62 | 220 | 0.9 | 11.3 | 0.00 | 0.00 | 0.00 | 32 | 1015.3 |
| 20260502194523 | 62 | 252 | 2.6 | 10.4 | 0.00 | 0.00 | 0.00 | 31 | 1015.5 |
| 20260502193020 | 61 | 182 | 0.0 | 5.2 | 0.00 | 0.00 | 0.00 | 31 | 1015.8 |
| 20260502191516 | 61 | 312 | 0.0 | 6.1 | 0.00 | 0.00 | 0.00 | 33 | 1016.2 |
| 20260502190021 | 60 | 242 | 0.0 | 8.7 | 0.00 | 0.00 | 0.00 | 33 | 1016.5 |
| 20260502184511 | 60 | 245 | 0.0 | 4.3 | 0.00 | 0.00 | 0.00 | 35 | 1016.7 |
| 20260502183009 | 59 | 243 | 0.0 | 6.1 | 0.00 | 0.00 | 0.00 | 34 | 1016.9 |
| 20260502181506 | 59 | 211 | 0.0 | 6.1 | 0.00 | 0.00 | 0.00 | 33 | 1017.1 |
| 20260502163047 | 56 | 195 | 0.0 | 4.3 | 0.00 | 0.00 | 0.00 | 36 | 1018.8 |
| 20260502161549 | 55 | 236 | 0.0 | 4.3 | 0.00 | 0.00 | 0.00 | 36 | 1019.1 |
| 20260502151532 | 53 | 205 | 0.0 | 0.0 | 0.00 | 0.00 | 0.00 | 40 | 1019.6 |
| 20260502123058 | 40 | 271 | 0.0 | 0.0 | 0.00 | 0.00 | 0.00 | 66 | 1020.2 |
| 20260502121601 | 40 | 251 | 0.0 | 0.0 | 0.00 | 0.00 | 0.00 | 67 | 1020.1 |
| 20260502120109 | 39 | 219 | 0.0 | 0.0 | 0.00 | 0.00 | 0.00 | 67 | 1020.1 |
| 20260502114634 | 38 | 261 | 0.0 | 0.0 | 0.00 | 0.00 | 0.00 | 70 | 1020.1 |
| 20260502113055 | 37 | 263 | 0.0 | 0.0 | 0.00 | 0.00 | 0.00 | 72 | 1019.9 |
| 20260502111554 | 36 | 259 | 0.0 | 0.0 | 0.00 | 0.00 | 0.00 | 72 | 1019.9 |
| 20260502110054 | 36 | 261 | 0.0 | 0.0 | 0.00 | 0.00 | 0.00 | 71 | 1019.9 |
| 20260502104554 | 37 | 261 | 0.0 | 0.0 | 0.00 | 0.00 | 0.00 | 71 | 1019.9 |
| 20260502103052 | 36 | 261 | 0.0 | 0.0 | 0.00 | 0.00 | 0.00 | 74 | 1020.0 |
| 20260502101613 | 36 | 261 | 0.0 | 0.0 | 0.00 | 0.00 | 0.00 | 72 | 1019.9 |
| 20260502100107 | 35 | 261 | 0.0 | 0.0 | 0.00 | 0.00 | 0.00 | 73 | 1020.0 |
| 20260502071529 | 41 | 231 | 0.0 | 0.0 | 0.00 | 0.00 | 0.00 | 60 | 1019.9 |
| 20260502070033 | 40 | 256 | 0.0 | 0.0 | 0.00 | 0.00 | 0.00 | 60 | 1020.0 |
| 20260502064540 | 40 | 262 | 0.0 | 0.0 | 0.00 | 0.00 | 0.00 | 60 | 1020.1 |
| 20260502063026 | 40 | 235 | 0.0 | 0.0 | 0.00 | 0.00 | 0.00 | 59 | 1020.1 |
| 20260502061524 | 40 | 257 | 0.0 | 0.0 | 0.00 | 0.00 | 0.00 | 60 | 1020.1 |
| 20260502060033 | 41 | 255 | 0.0 | 0.0 | 0.00 | 0.00 | 0.00 | 58 | 1020.1 |
| 20260502054521 | 40 | 264 | 0.0 | 0.0 | 0.00 | 0.00 | 0.00 | 61 | 1020.1 |
| 20260502053017 | 40 | 234 | 0.0 | 0.0 | 0.00 | 0.00 | 0.00 | 64 | 1020.2 |
| 20260502051516 | 39 | 234 | 0.0 | 0.0 | 0.00 | 0.00 | 0.00 | 64 | 1020.1 |
| 20260502050019 | 39 | 234 | 0.0 | 0.0 | 0.00 | 0.00 | 0.00 | 63 | 1020.1 |
| 20260502044511 | 39 | 234 | 0.0 | 0.0 | 0.00 | 0.00 | 0.00 | 65 | 1020.1 |
| 20260502043011 | 40 | 234 | 0.0 | 0.0 | 0.00 | 0.00 | 0.00 | 64 | 1020.1 |
| 20260502041513 | 41 | 234 | 0.0 | 0.0 | 0.00 | 0.00 | 0.00 | 61 | 1020.1 |
| 20260502040013 | 41 | 234 | 0.0 | 0.0 | 0.00 | 0.00 | 0.00 | 63 | 1020.1 |
| 20260502034510 | 41 | 234 | 0.0 | 0.0 | 0.00 | 0.00 | 0.00 | 62 | 1020.2 |
| 20260502033016 | 42 | 234 | 0.0 | 0.0 | 0.00 | 0.00 | 0.00 | 62 | 1020.3 |
| 20260502031509 | 42 | 234 | 0.0 | 0.0 | 0.00 | 0.00 | 0.00 | 57 | 1020.2 |
| 20260502030009 | 42 | 235 | 0.0 | 0.0 | 0.00 | 0.00 | 0.00 | 62 | 1020.1 |
| 20260502024513 | 42 | 235 | 0.0 | 0.0 | 0.00 | 0.00 | 0.00 | 58 | 1020.2 |
| 20260502023008 | 43 | 235 | 0.0 | 0.0 | 0.00 | 0.00 | 0.00 | 58 | 1020.2 |
| 20260502021507 | 44 | 235 | 0.0 | 0.0 | 0.00 | 0.00 | 0.00 | 52 | 1020.1 |
| 20260502020007 | 46 | 235 | 0.0 | 0.0 | 0.00 | 0.00 | 0.00 | 49 | 1019.9 |
| 20260502014506 | 46 | 235 | 0.0 | 0.0 | 0.00 | 0.00 | 0.00 | 47 | 1019.8 |